This is the latest recevied weather packets stored in our database for station/object JG6YPS-13. If no packets are shown the sender has not sent any weather packets the latest 10 day(s).
| Time | Temp. | Humidity | Pressure | Rain* | Wind** | Luminosity | Snow |
|---|---|---|---|---|---|---|---|
| 1777525939 | 18.89° C | 77% | 1009.8 hPa | 0 mm | - | - | - |
| 1777525339 | 18.89° C | 77% | 1009.9 hPa | 0 mm | - | - | - |
| 1777524739 | 19.44° C | 75% | 1009.9 hPa | 0 mm | - | - | - |
| 1777524139 | 20° C | 70% | 1009.8 hPa | 0 mm | - | - | - |
| 1777523539 | 20.56° C | 69% | 1010.1 hPa | 0.25 mm | - | - | - |
| 1777522940 | 20.56° C | 69% | 1010.1 hPa | 0.25 mm | - | - | - |
| 1777522340 | 21.67° C | 68% | 1010.2 hPa | 0.25 mm | - | - | - |
| 1777521740 | 21.11° C | 68% | 1010.2 hPa | 0.25 mm | - | - | - |
| 1777521140 | 21.11° C | 71% | 1010.4 hPa | 0.25 mm | - | - | - |
| 1777520540 | 20.56° C | 71% | 1010.6 hPa | 0.25 mm | - | - | - |
| 1777519940 | 20° C | 74% | 1011.1 hPa | 0 mm | - | - | - |
| 1777519341 | 20° C | 73% | 1011.1 hPa | 0 mm | - | - | - |
| 1777518741 | 20° C | 74% | 1011.4 hPa | 0 mm | - | - | - |
| 1777518141 | 19.44° C | 75% | 1011.6 hPa | 0 mm | - | - | - |
| 1777517542 | 19.44° C | 76% | 1011.7 hPa | 0 mm | - | - | - |
| 1777516942 | 19.44° C | 76% | 1011.8 hPa | 0 mm | - | - | - |
| 1777516342 | 18.89° C | 79% | 1011.9 hPa | 0 mm | - | - | - |
| 1777515743 | 18.89° C | 81% | 1012 hPa | 0 mm | - | - | - |
| 1777515143 | 18.33° C | 82% | 1012.2 hPa | 0.25 mm | - | - | - |
| 1777514543 | 18.89° C | 83% | 1012.4 hPa | 0.51 mm | - | - | - |
| 1777513944 | 18.89° C | 86% | 1012.8 hPa | 0.51 mm | - | - | - |
| 1777513344 | 18.33° C | 86% | 1012.8 hPa | 0.76 mm | - | - | - |
| 1777512744 | 17.78° C | 86% | 1013.1 hPa | 0.76 mm | - | - | - |
| 1777512144 | 17.78° C | 87% | 1013.1 hPa | 0.76 mm | - | - | - |
| 1777511545 | 17.22° C | 87% | 1013.3 hPa | 0.76 mm | - | - | - |
* Rain latest hour (hover to see other rain measurements)
** Current wind speed in m/s (hover to see current wind gust speed)